RJER(METAR)
05/21 16:00
RJER 210700Z 24017KT CAVOK 17/11 Q1007 RMK A2974=
戻る
トップページへ戻る
IMOC Co,.Ltd.